createdAt,value
2023-01-17T00:00:09.856Z,23.30
2023-01-17T00:00:41.369Z,23.28
2023-01-17T00:01:12.881Z,23.26
2023-01-17T00:01:44.274Z,23.27
2023-01-17T00:02:15.755Z,23.23
2023-01-17T00:02:47.239Z,23.24
2023-01-17T00:03:18.645Z,23.20
2023-01-17T00:03:50.150Z,23.21
2023-01-17T00:04:21.821Z,23.26
2023-01-17T00:04:53.331Z,23.27
2023-01-17T00:05:24.728Z,23.29
2023-01-17T00:05:56.161Z,23.30
2023-01-17T00:06:27.604Z,23.27
2023-01-17T00:06:59.027Z,23.28
2023-01-17T00:07:30.489Z,23.27
2023-01-17T00:08:01.910Z,23.26
2023-01-17T00:08:33.333Z,23.25
2023-01-17T00:09:04.752Z,23.25
2023-01-17T00:09:36.203Z,23.24
2023-01-17T00:10:07.707Z,23.27
2023-01-17T00:10:39.170Z,23.27
2023-01-17T00:11:10.720Z,23.26
2023-01-17T00:11:42.153Z,23.27
2023-01-17T00:12:13.601Z,23.27
2023-01-17T00:12:44.990Z,23.27
2023-01-17T00:13:16.494Z,23.27
2023-01-17T00:13:48.015Z,23.27
2023-01-17T00:14:19.448Z,23.25
2023-01-17T00:14:50.881Z,23.24
2023-01-17T00:15:22.391Z,23.25
2023-01-17T00:15:53.858Z,23.27
2023-01-17T00:16:25.296Z,23.26
2023-01-17T00:16:56.739Z,23.26
2023-01-17T00:17:28.141Z,23.25
2023-01-17T00:17:59.552Z,23.26
2023-01-17T00:18:30.962Z,23.27
2023-01-17T00:19:02.359Z,23.27
2023-01-17T00:19:33.768Z,23.27
2023-01-17T00:20:05.203Z,23.25
2023-01-17T00:20:36.686Z,23.26
2023-01-17T00:21:08.173Z,23.26
2023-01-17T00:21:39.615Z,23.24
2023-01-17T00:22:11.111Z,23.25
2023-01-17T00:22:42.550Z,23.26
2023-01-17T00:23:14.014Z,23.27
2023-01-17T00:23:45.403Z,23.28
2023-01-17T00:24:16.793Z,23.28
2023-01-17T00:24:48.204Z,23.28
2023-01-17T00:25:19.687Z,23.29
2023-01-17T00:25:51.183Z,23.30
2023-01-17T00:26:22.599Z,23.28
2023-01-17T00:26:53.996Z,23.28
2023-01-17T00:27:25.460Z,23.26
2023-01-17T00:27:56.854Z,23.28
2023-01-17T00:28:28.277Z,23.30
2023-01-17T00:28:59.699Z,23.31
2023-01-17T00:29:31.159Z,23.29
2023-01-17T00:30:02.624Z,23.28
2023-01-17T00:30:34.062Z,23.27
2023-01-17T00:31:05.644Z,23.29
2023-01-17T00:31:37.165Z,23.30
2023-01-17T00:32:08.661Z,23.31
2023-01-17T00:32:40.056Z,23.28
2023-01-17T00:33:11.443Z,23.26
2023-01-17T00:33:42.862Z,23.28
2023-01-17T00:34:14.340Z,23.27
2023-01-17T00:34:45.721Z,23.27
2023-01-17T00:35:17.122Z,23.26
2023-01-17T00:35:48.511Z,23.27
2023-01-17T00:36:20.004Z,23.27
2023-01-17T00:36:51.427Z,23.28
2023-01-17T00:37:22.846Z,23.29
2023-01-17T00:37:54.330Z,23.29
2023-01-17T00:38:25.738Z,23.27
2023-01-17T00:38:57.171Z,23.27
2023-01-17T00:39:28.606Z,23.28
2023-01-17T00:40:00.012Z,23.29
2023-01-17T00:40:31.458Z,23.29
2023-01-17T00:41:02.861Z,23.27
2023-01-17T00:41:34.332Z,23.24
2023-01-17T00:42:05.756Z,23.21
2023-01-17T00:42:37.160Z,23.21
2023-01-17T00:43:08.771Z,23.25
2023-01-17T00:43:40.181Z,23.24
2023-01-17T00:44:11.584Z,23.25
2023-01-17T00:44:43.011Z,23.24
2023-01-17T00:45:14.434Z,23.23
2023-01-17T00:45:45.814Z,23.24
2023-01-17T00:46:17.272Z,23.27
2023-01-17T00:46:48.867Z,23.27
2023-01-17T00:47:20.343Z,23.30
2023-01-17T00:47:53.147Z,23.32
2023-01-17T00:48:24.634Z,23.32
2023-01-17T00:48:56.070Z,23.31
2023-01-17T00:49:27.446Z,23.28
2023-01-17T00:49:58.874Z,23.30
2023-01-17T00:50:30.301Z,23.28
2023-01-17T00:51:01.722Z,23.30
2023-01-17T00:51:33.136Z,23.28
2023-01-17T00:52:04.595Z,23.27
2023-01-17T00:52:36.042Z,23.27
2023-01-17T00:53:07.437Z,23.26
2023-01-17T00:53:38.888Z,23.27
2023-01-17T00:54:10.242Z,23.26
2023-01-17T00:54:41.716Z,23.27
2023-01-17T00:55:13.201Z,23.30
2023-01-17T00:55:44.618Z,23.29
2023-01-17T00:56:16.058Z,23.31
2023-01-17T00:56:47.419Z,23.29
2023-01-17T00:57:18.813Z,23.29
2023-01-17T00:57:50.241Z,23.29
2023-01-17T00:58:21.673Z,23.28
2023-01-17T00:58:53.124Z,23.27
2023-01-17T00:59:24.530Z,23.27
2023-01-17T00:59:56.016Z,23.29
2023-01-17T01:00:27.468Z,23.29
2023-01-17T01:00:58.987Z,23.31
2023-01-17T01:01:30.499Z,23.32
2023-01-17T01:02:02.042Z,23.29
2023-01-17T01:02:33.573Z,23.30
2023-01-17T01:03:04.977Z,23.31
2023-01-17T01:03:36.407Z,23.30
2023-01-17T01:04:07.833Z,23.29
2023-01-17T01:04:39.238Z,23.29
2023-01-17T01:05:10.769Z,23.30
2023-01-17T01:05:42.206Z,23.28
2023-01-17T01:06:13.661Z,23.27
2023-01-17T01:06:45.119Z,23.28
2023-01-17T01:07:16.545Z,23.29
2023-01-17T01:07:48.085Z,23.30
2023-01-17T01:08:19.475Z,23.31
2023-01-17T01:08:50.927Z,23.32
2023-01-17T01:09:22.374Z,23.28
2023-01-17T01:09:53.799Z,23.28
2023-01-17T01:10:25.254Z,23.28
2023-01-17T01:10:56.702Z,23.27
2023-01-17T01:11:28.142Z,23.28
2023-01-17T01:11:59.514Z,23.28
2023-01-17T01:12:30.974Z,23.29
2023-01-17T01:13:02.429Z,23.30
2023-01-17T01:13:33.812Z,23.29
2023-01-17T01:14:05.226Z,23.29
2023-01-17T01:14:36.711Z,23.29
2023-01-17T01:15:08.167Z,23.30
2023-01-17T01:15:39.654Z,23.32
2023-01-17T01:16:11.568Z,23.31
2023-01-17T01:16:43.056Z,23.30
2023-01-17T01:17:14.497Z,23.30
2023-01-17T01:17:45.980Z,23.30
2023-01-17T01:18:17.458Z,23.30
2023-01-17T01:18:48.878Z,23.29
2023-01-17T01:19:20.349Z,23.28
2023-01-17T01:19:51.763Z,23.30
2023-01-17T01:20:23.156Z,23.29
2023-01-17T01:20:54.667Z,23.29
2023-01-17T01:21:26.098Z,23.30
2023-01-17T01:21:57.513Z,23.30
2023-01-17T01:22:28.982Z,23.29
2023-01-17T01:23:00.363Z,23.30
2023-01-17T01:23:31.748Z,23.32
2023-01-17T01:24:03.170Z,23.30
2023-01-17T01:24:34.632Z,23.31
2023-01-17T01:25:06.061Z,23.30
2023-01-17T01:25:37.457Z,23.30
2023-01-17T01:26:08.964Z,23.29
2023-01-17T01:26:40.414Z,23.30
2023-01-17T01:27:11.858Z,23.30
2023-01-17T01:27:43.270Z,23.30
2023-01-17T01:28:14.656Z,23.31
2023-01-17T01:28:46.126Z,23.30
2023-01-17T01:29:17.540Z,23.28
2023-01-17T01:29:48.921Z,23.26
2023-01-17T01:30:20.321Z,23.26
2023-01-17T01:30:51.755Z,23.28
2023-01-17T01:31:23.380Z,23.28
2023-01-17T01:31:54.827Z,23.28
2023-01-17T01:32:26.216Z,23.29
2023-01-17T01:32:57.641Z,23.29
2023-01-17T01:33:29.054Z,23.28
2023-01-17T01:34:00.585Z,23.28
2023-01-17T01:34:32.030Z,23.29
2023-01-17T01:35:03.417Z,23.28
2023-01-17T01:35:34.797Z,23.28
2023-01-17T01:36:06.283Z,23.29
2023-01-17T01:36:37.679Z,23.27
2023-01-17T01:37:09.113Z,23.27
2023-01-17T01:37:40.595Z,23.27
2023-01-17T01:38:12.080Z,23.28
2023-01-17T01:38:43.516Z,23.30
2023-01-17T01:39:14.933Z,23.28
2023-01-17T01:39:46.665Z,23.29
2023-01-17T01:40:18.104Z,23.30
2023-01-17T01:40:49.543Z,23.31
2023-01-17T01:41:21.012Z,23.30
2023-01-17T01:41:52.402Z,23.30
2023-01-17T01:42:23.822Z,23.30
2023-01-17T01:42:55.226Z,23.31
2023-01-17T01:43:26.649Z,23.31
2023-01-17T01:43:58.044Z,23.28
2023-01-17T01:44:29.438Z,23.29
2023-01-17T01:45:00.955Z,23.29
2023-01-17T01:45:32.444Z,23.30
2023-01-17T01:46:04.037Z,23.30
2023-01-17T01:46:35.626Z,23.30
2023-01-17T01:47:07.067Z,23.31
2023-01-17T01:47:38.517Z,23.28
2023-01-17T01:48:09.984Z,23.27
2023-01-17T01:48:41.419Z,23.28
2023-01-17T01:49:12.787Z,23.28
2023-01-17T01:49:44.175Z,23.29
2023-01-17T01:50:15.565Z,23.28
2023-01-17T01:50:46.946Z,23.30
2023-01-17T01:51:18.379Z,23.28
2023-01-17T01:51:49.878Z,23.28
2023-01-17T01:52:21.282Z,23.26
2023-01-17T01:52:52.731Z,23.26
2023-01-17T01:53:24.192Z,23.28
2023-01-17T01:53:55.617Z,23.25
2023-01-17T01:54:27.027Z,23.24
2023-01-17T01:54:58.508Z,23.24
2023-01-17T01:55:29.921Z,23.23
2023-01-17T01:56:01.350Z,23.25
2023-01-17T01:56:32.738Z,23.26
2023-01-17T01:57:04.284Z,23.27
2023-01-17T01:57:35.772Z,23.27
2023-01-17T01:58:07.171Z,23.28
2023-01-17T01:58:38.584Z,23.27
2023-01-17T01:59:09.995Z,23.27
2023-01-17T01:59:41.381Z,23.26
2023-01-17T02:00:12.782Z,23.30
2023-01-17T02:00:44.259Z,23.30
2023-01-17T02:01:15.779Z,23.28
2023-01-17T02:01:47.340Z,23.28
2023-01-17T02:02:18.886Z,23.28
2023-01-17T02:02:50.368Z,23.28
2023-01-17T02:03:21.763Z,23.28
2023-01-17T02:03:53.150Z,23.26
2023-01-17T02:04:24.581Z,23.26
2023-01-17T02:04:56.020Z,23.30
2023-01-17T02:05:27.389Z,23.28
2023-01-17T02:05:58.886Z,23.26
2023-01-17T02:06:30.313Z,23.29
2023-01-17T02:07:01.748Z,23.27
2023-01-17T02:07:33.251Z,23.26
2023-01-17T02:08:04.642Z,23.26
2023-01-17T02:08:36.013Z,23.27
2023-01-17T02:09:07.437Z,23.29
2023-01-17T02:09:38.855Z,23.29
2023-01-17T02:10:10.317Z,23.29
2023-01-17T02:10:41.740Z,23.29
2023-01-17T02:11:13.148Z,23.29
2023-01-17T02:11:44.588Z,23.28
2023-01-17T02:12:16.018Z,23.29
2023-01-17T02:12:47.537Z,23.28
2023-01-17T02:13:18.980Z,23.30
2023-01-17T02:13:50.431Z,23.30
2023-01-17T02:14:21.874Z,23.29
2023-01-17T02:14:53.314Z,23.29
2023-01-17T02:15:24.738Z,23.27
2023-01-17T02:15:56.169Z,23.29
2023-01-17T02:16:27.643Z,23.31
2023-01-17T02:16:59.077Z,23.29
2023-01-17T02:17:30.489Z,23.30
2023-01-17T02:18:01.952Z,23.30
2023-01-17T02:18:33.417Z,23.28
2023-01-17T02:19:04.841Z,23.27
2023-01-17T02:19:36.263Z,23.27
2023-01-17T02:20:07.720Z,23.28
2023-01-17T02:20:39.143Z,23.28
2023-01-17T02:21:10.580Z,23.28
2023-01-17T02:21:42.028Z,23.27
2023-01-17T02:22:13.454Z,23.29
2023-01-17T02:22:44.841Z,23.28
2023-01-17T02:23:16.458Z,23.28
2023-01-17T02:23:47.876Z,23.27
2023-01-17T02:24:19.336Z,23.29
2023-01-17T02:24:50.761Z,23.30
2023-01-17T02:25:22.170Z,23.28
2023-01-17T02:25:53.695Z,23.31
2023-01-17T02:26:25.091Z,23.31
2023-01-17T02:26:56.548Z,23.30
2023-01-17T02:27:27.926Z,23.29
2023-01-17T02:27:59.347Z,23.30
2023-01-17T02:28:30.761Z,23.31
2023-01-17T02:29:02.179Z,23.30
2023-01-17T02:29:33.611Z,23.31
2023-01-17T02:30:05.036Z,23.29
2023-01-17T02:30:36.505Z,23.29
2023-01-17T02:31:07.904Z,23.29
2023-01-17T02:31:39.371Z,23.30
2023-01-17T02:32:10.834Z,23.28
2023-01-17T02:32:42.256Z,23.30
2023-01-17T02:33:13.636Z,23.30
2023-01-17T02:33:45.036Z,23.29
2023-01-17T02:34:16.466Z,23.30
2023-01-17T02:34:47.908Z,23.32
2023-01-17T02:35:19.280Z,23.33
2023-01-17T02:35:50.712Z,23.32
2023-01-17T02:36:22.238Z,23.32
2023-01-17T02:36:53.768Z,23.32
2023-01-17T02:37:25.224Z,23.31
2023-01-17T02:37:56.612Z,23.31
2023-01-17T02:38:28.043Z,23.30
2023-01-17T02:38:59.451Z,23.30
2023-01-17T02:39:30.916Z,23.32
2023-01-17T02:40:02.315Z,23.30
2023-01-17T02:40:33.717Z,23.30
2023-01-17T02:41:05.146Z,23.30
2023-01-17T02:41:36.554Z,23.30
2023-01-17T02:42:08.002Z,23.29
2023-01-17T02:42:39.428Z,23.30
2023-01-17T02:43:10.816Z,23.28
2023-01-17T02:43:42.221Z,23.27
2023-01-17T02:44:13.638Z,23.29
2023-01-17T02:44:45.098Z,23.29
2023-01-17T02:45:16.769Z,23.29
2023-01-17T02:45:48.206Z,23.30
2023-01-17T02:46:19.646Z,23.29
2023-01-17T02:46:51.088Z,23.30
2023-01-17T02:47:22.637Z,23.30
2023-01-17T02:47:54.052Z,23.30
2023-01-17T02:48:25.493Z,23.30
2023-01-17T02:48:56.902Z,23.32
2023-01-17T02:49:28.332Z,23.33
2023-01-17T02:49:59.797Z,23.34
2023-01-17T02:50:31.193Z,23.31
2023-01-17T02:51:02.623Z,23.31
2023-01-17T02:51:34.059Z,23.31
2023-01-17T02:52:05.436Z,23.30
2023-01-17T02:52:36.920Z,23.29
2023-01-17T02:53:08.347Z,23.28
2023-01-17T02:53:39.758Z,23.29
2023-01-17T02:54:11.175Z,23.28
2023-01-17T02:54:42.587Z,23.30
2023-01-17T02:55:14.014Z,23.30
2023-01-17T02:55:45.427Z,23.27
2023-01-17T02:56:16.886Z,23.29
2023-01-17T02:56:48.474Z,23.29
2023-01-17T02:57:19.932Z,23.31
2023-01-17T02:57:51.419Z,23.32
2023-01-17T02:58:22.880Z,23.31
2023-01-17T02:58:54.324Z,23.29
2023-01-17T02:59:25.751Z,23.31
2023-01-17T02:59:57.191Z,23.32
2023-01-17T03:00:28.579Z,23.33
2023-01-17T03:01:00.087Z,23.31
2023-01-17T03:01:31.643Z,23.30
2023-01-17T03:02:03.261Z,23.31
2023-01-17T03:02:34.720Z,23.32
2023-01-17T03:03:06.141Z,23.33
2023-01-17T03:03:37.571Z,23.34
2023-01-17T03:04:08.995Z,23.34
2023-01-17T03:04:40.442Z,23.33
2023-01-17T03:05:11.837Z,23.32
2023-01-17T03:05:43.227Z,23.31
2023-01-17T03:06:14.736Z,23.29
2023-01-17T03:06:46.170Z,23.28
2023-01-17T03:07:17.656Z,23.28
2023-01-17T03:07:49.217Z,23.28
2023-01-17T03:08:20.701Z,23.28
2023-01-17T03:08:52.108Z,23.28
2023-01-17T03:09:23.507Z,23.28
2023-01-17T03:09:54.892Z,23.28
2023-01-17T03:10:26.280Z,23.30
2023-01-17T03:10:57.686Z,23.30
2023-01-17T03:11:29.110Z,23.29
2023-01-17T03:12:00.485Z,23.31
2023-01-17T03:12:31.991Z,23.29
2023-01-17T03:13:03.418Z,23.28
2023-01-17T03:13:34.950Z,23.29
2023-01-17T03:14:06.370Z,23.29
2023-01-17T03:14:37.818Z,23.29
2023-01-17T03:15:09.270Z,23.29
2023-01-17T03:15:40.692Z,23.29
2023-01-17T03:16:12.831Z,23.28
2023-01-17T03:16:44.359Z,23.29
2023-01-17T03:17:15.942Z,23.28
2023-01-17T03:17:47.371Z,23.28
2023-01-17T03:18:18.788Z,23.30
2023-01-17T03:18:50.238Z,23.28
2023-01-17T03:19:21.656Z,23.29
2023-01-17T03:19:53.039Z,23.31
2023-01-17T03:20:24.525Z,23.32
2023-01-17T03:20:55.955Z,23.29
2023-01-17T03:21:27.432Z,23.30
2023-01-17T03:21:58.849Z,23.31
2023-01-17T03:22:30.285Z,23.31
2023-01-17T03:23:01.757Z,23.32
2023-01-17T03:23:33.162Z,23.30
2023-01-17T03:24:04.591Z,23.31
2023-01-17T03:24:36.031Z,23.32
2023-01-17T03:25:07.429Z,23.30
2023-01-17T03:25:38.855Z,23.29
2023-01-17T03:26:10.232Z,23.31
2023-01-17T03:26:41.725Z,23.31
2023-01-17T03:27:13.222Z,23.29
2023-01-17T03:27:44.666Z,23.29
2023-01-17T03:28:16.084Z,23.27
2023-01-17T03:28:47.441Z,23.24
2023-01-17T03:29:18.904Z,23.25
2023-01-17T03:29:50.479Z,23.25
2023-01-17T03:30:21.949Z,23.26
2023-01-17T03:30:53.433Z,23.26
2023-01-17T03:31:24.882Z,23.28
2023-01-17T03:31:56.349Z,23.28
2023-01-17T03:32:27.762Z,23.26
2023-01-17T03:32:59.276Z,23.27
2023-01-17T03:33:30.704Z,23.24
2023-01-17T03:34:02.153Z,23.24
2023-01-17T03:34:33.552Z,23.26
2023-01-17T03:35:04.956Z,23.28
2023-01-17T03:35:36.354Z,23.28
2023-01-17T03:36:07.763Z,23.26
2023-01-17T03:36:39.194Z,23.27
2023-01-17T03:37:10.610Z,23.28
2023-01-17T03:37:42.046Z,23.26
2023-01-17T03:38:13.573Z,23.27
2023-01-17T03:38:44.965Z,23.26
2023-01-17T03:39:16.348Z,23.28
2023-01-17T03:39:47.754Z,23.29
2023-01-17T03:40:19.191Z,23.31
2023-01-17T03:40:50.619Z,23.29
2023-01-17T03:41:22.034Z,23.27
2023-01-17T03:41:53.427Z,23.25
2023-01-17T03:42:24.851Z,23.27
2023-01-17T03:42:56.252Z,23.28
2023-01-17T03:43:27.737Z,23.29
2023-01-17T03:43:59.194Z,23.30
2023-01-17T03:44:30.682Z,23.28
2023-01-17T03:45:02.172Z,23.29
2023-01-17T03:45:33.601Z,23.29
2023-01-17T03:46:05.081Z,23.28
2023-01-17T03:46:36.567Z,23.27
2023-01-17T03:47:08.039Z,23.26
2023-01-17T03:47:39.482Z,23.29
2023-01-17T03:48:10.931Z,23.28
2023-01-17T03:48:42.375Z,23.28
2023-01-17T03:49:13.769Z,23.30
2023-01-17T03:49:45.215Z,23.29
2023-01-17T03:50:16.633Z,23.28
2023-01-17T03:50:48.043Z,23.30
2023-01-17T03:51:19.451Z,23.30
2023-01-17T03:51:50.868Z,23.29
2023-01-17T03:52:22.313Z,23.29
2023-01-17T03:52:53.680Z,23.29
2023-01-17T03:53:25.200Z,23.29
2023-01-17T03:53:56.608Z,23.29
2023-01-17T03:54:28.020Z,23.29
2023-01-17T03:54:59.469Z,23.27
2023-01-17T03:55:30.863Z,23.25
2023-01-17T03:56:02.280Z,23.24
2023-01-17T03:56:33.688Z,23.26
2023-01-17T03:57:05.108Z,23.27
2023-01-17T03:57:36.527Z,23.26
2023-01-17T03:58:07.941Z,23.26
2023-01-17T03:58:39.357Z,23.27
2023-01-17T03:59:13.034Z,23.26
2023-01-17T03:59:44.819Z,23.25
2023-01-17T04:00:16.232Z,23.25
2023-01-17T04:00:47.693Z,23.27
2023-01-17T04:01:19.237Z,23.28
2023-01-17T04:01:50.873Z,23.28
2023-01-17T04:02:22.386Z,23.29
2023-01-17T04:02:53.912Z,23.30
2023-01-17T04:03:25.337Z,23.30
2023-01-17T04:03:56.771Z,23.29
2023-01-17T04:04:28.244Z,23.31
2023-01-17T04:04:59.747Z,23.29
2023-01-17T04:05:31.158Z,23.30
2023-01-17T04:06:02.565Z,23.30
2023-01-17T04:06:33.983Z,23.31
2023-01-17T04:07:05.371Z,23.30
2023-01-17T04:07:36.773Z,23.30
2023-01-17T04:08:08.226Z,23.30
2023-01-17T04:08:39.637Z,23.30
2023-01-17T04:09:11.018Z,23.29
2023-01-17T04:09:42.468Z,23.31
2023-01-17T04:10:13.929Z,23.30
2023-01-17T04:10:45.400Z,23.30
2023-01-17T04:11:16.806Z,23.30
2023-01-17T04:11:48.196Z,23.31
2023-01-17T04:12:19.615Z,23.32
2023-01-17T04:12:51.034Z,23.31
2023-01-17T04:13:22.450Z,23.31
2023-01-17T04:13:53.900Z,23.31
2023-01-17T04:14:25.300Z,23.32
2023-01-17T04:14:56.717Z,23.30
2023-01-17T04:15:28.218Z,23.32
2023-01-17T04:15:59.699Z,23.31
2023-01-17T04:16:31.134Z,23.32
2023-01-17T04:17:02.586Z,23.32
2023-01-17T04:17:34.002Z,23.30
2023-01-17T04:18:05.426Z,23.31
2023-01-17T04:18:36.856Z,23.31
2023-01-17T04:19:08.307Z,23.31
2023-01-17T04:19:39.806Z,23.30
2023-01-17T04:20:11.285Z,23.30
2023-01-17T04:20:42.764Z,23.32
2023-01-17T04:21:14.175Z,23.34
2023-01-17T04:21:45.579Z,23.32
2023-01-17T04:22:17.008Z,23.28
2023-01-17T04:22:48.432Z,23.28
2023-01-17T04:23:19.874Z,23.30
2023-01-17T04:23:51.272Z,23.32
2023-01-17T04:24:22.709Z,23.32
2023-01-17T04:24:54.128Z,23.32
2023-01-17T04:25:25.527Z,23.31
2023-01-17T04:25:56.979Z,23.30
2023-01-17T04:26:28.476Z,23.31
2023-01-17T04:26:59.865Z,23.31
2023-01-17T04:27:31.398Z,23.31
2023-01-17T04:28:02.828Z,23.29
2023-01-17T04:28:34.247Z,23.29
2023-01-17T04:29:05.677Z,23.29
2023-01-17T04:29:37.104Z,23.32
2023-01-17T04:30:08.550Z,23.32
2023-01-17T04:30:40.003Z,23.31
2023-01-17T04:31:11.580Z,23.32
2023-01-17T04:31:43.126Z,23.31
2023-01-17T04:32:14.814Z,23.30
2023-01-17T04:32:46.249Z,23.30
2023-01-17T04:33:17.679Z,23.30
2023-01-17T04:33:49.080Z,23.30
2023-01-17T04:34:20.462Z,23.29
2023-01-17T04:34:51.908Z,23.30
2023-01-17T04:35:23.331Z,23.30
2023-01-17T04:35:54.757Z,23.29
2023-01-17T04:36:26.214Z,23.30
2023-01-17T04:36:57.705Z,23.28
2023-01-17T04:37:29.146Z,23.29
2023-01-17T04:38:00.562Z,23.29
2023-01-17T04:38:32.030Z,23.30
2023-01-17T04:39:03.446Z,23.31
2023-01-17T04:39:34.863Z,23.32
2023-01-17T04:40:06.261Z,23.34
2023-01-17T04:40:37.681Z,23.29
2023-01-17T04:41:09.160Z,23.28
2023-01-17T04:41:40.624Z,23.29
2023-01-17T04:42:12.025Z,23.30
2023-01-17T04:42:43.517Z,23.29
2023-01-17T04:43:14.911Z,23.33
2023-01-17T04:43:46.346Z,23.34
2023-01-17T04:44:17.792Z,23.33
2023-01-17T04:44:49.215Z,23.33
2023-01-17T04:45:20.643Z,23.34
2023-01-17T04:45:52.088Z,23.33
2023-01-17T04:46:23.681Z,23.29
2023-01-17T04:46:55.127Z,23.30
2023-01-17T04:47:26.611Z,23.29
2023-01-17T04:47:58.029Z,23.30
2023-01-17T04:48:29.524Z,23.28
2023-01-17T04:49:00.973Z,23.30
2023-01-17T04:49:32.407Z,23.31
2023-01-17T04:50:03.854Z,23.32
2023-01-17T04:50:35.254Z,23.32
2023-01-17T04:51:06.693Z,23.32
2023-01-17T04:51:38.073Z,23.31
2023-01-17T04:52:09.506Z,23.30
2023-01-17T04:52:40.937Z,23.32
2023-01-17T04:53:12.359Z,23.32
2023-01-17T04:53:43.843Z,23.31
2023-01-17T04:54:15.296Z,23.32
2023-01-17T04:54:46.664Z,23.32
2023-01-17T04:55:18.161Z,23.32
2023-01-17T04:55:49.580Z,23.32
2023-01-17T04:56:21.032Z,23.31
2023-01-17T04:56:52.453Z,23.32
2023-01-17T04:57:23.917Z,23.32
2023-01-17T04:57:55.324Z,23.32
2023-01-17T04:58:26.697Z,23.31
2023-01-17T04:58:58.133Z,23.30
2023-01-17T04:59:29.542Z,23.31
2023-01-17T05:00:00.953Z,23.32
2023-01-17T05:00:32.488Z,23.30
2023-01-17T05:01:03.931Z,23.31
2023-01-17T05:01:35.495Z,23.33
2023-01-17T05:02:07.043Z,23.31
2023-01-17T05:02:38.529Z,23.32
2023-01-17T05:03:09.992Z,23.32
2023-01-17T05:03:41.453Z,23.30
2023-01-17T05:04:12.897Z,23.32
2023-01-17T05:04:44.330Z,23.32
2023-01-17T05:05:15.735Z,23.32
2023-01-17T05:05:47.253Z,23.31
2023-01-17T05:06:18.733Z,23.31
2023-01-17T05:06:50.157Z,23.32
2023-01-17T05:07:21.667Z,23.31
2023-01-17T05:07:53.130Z,23.28
2023-01-17T05:08:24.510Z,23.27
2023-01-17T05:08:55.932Z,23.28
2023-01-17T05:09:27.335Z,23.28
2023-01-17T05:09:58.735Z,23.28
2023-01-17T05:10:30.162Z,23.31
2023-01-17T05:11:01.660Z,23.30
2023-01-17T05:11:33.113Z,23.32
2023-01-17T05:12:04.562Z,23.30
2023-01-17T05:12:36.059Z,23.32
2023-01-17T05:13:07.499Z,23.32
2023-01-17T05:13:38.946Z,23.30
2023-01-17T05:14:10.391Z,23.30
2023-01-17T05:14:41.778Z,23.31
2023-01-17T05:15:13.245Z,23.31
2023-01-17T05:15:44.775Z,23.31
2023-01-17T05:16:16.348Z,23.31
2023-01-17T05:16:47.757Z,23.31
2023-01-17T05:17:19.252Z,23.31
2023-01-17T05:17:50.681Z,23.32
2023-01-17T05:18:22.072Z,23.30
2023-01-17T05:18:53.502Z,23.32
2023-01-17T05:19:27.458Z,23.32
2023-01-17T05:19:58.876Z,23.32
2023-01-17T05:20:30.349Z,23.31
2023-01-17T05:21:01.760Z,23.33
2023-01-17T05:21:33.256Z,23.35
2023-01-17T05:22:04.648Z,23.33
2023-01-17T05:22:36.084Z,23.33
2023-01-17T05:23:07.568Z,23.33
2023-01-17T05:23:39.031Z,23.34
2023-01-17T05:24:10.451Z,23.32
2023-01-17T05:24:41.843Z,23.32
2023-01-17T05:25:13.256Z,23.32
2023-01-17T05:25:44.711Z,23.33
2023-01-17T05:26:16.109Z,23.30
2023-01-17T05:26:49.652Z,23.31
2023-01-17T05:27:21.722Z,23.31
2023-01-17T05:27:53.127Z,23.30
2023-01-17T05:28:24.558Z,23.29
2023-01-17T05:28:56.153Z,23.31
2023-01-17T05:29:27.601Z,23.30
2023-01-17T05:29:59.004Z,23.30
2023-01-17T05:30:30.472Z,23.28
2023-01-17T05:31:01.924Z,23.30
2023-01-17T05:31:33.385Z,23.29
2023-01-17T05:32:04.784Z,23.29
2023-01-17T05:32:36.199Z,23.29
2023-01-17T05:33:07.587Z,23.29
2023-01-17T05:33:39.065Z,23.29
2023-01-17T05:34:10.549Z,23.28
2023-01-17T05:34:42.196Z,23.30
2023-01-17T05:35:13.599Z,23.29
2023-01-17T05:35:44.981Z,23.29
2023-01-17T05:36:16.413Z,23.31
2023-01-17T05:36:47.840Z,23.30
2023-01-17T05:37:19.244Z,23.32
2023-01-17T05:37:50.684Z,23.32
2023-01-17T05:38:22.091Z,23.33
2023-01-17T05:38:53.586Z,23.32
2023-01-17T05:39:25.008Z,23.33
2023-01-17T05:39:56.491Z,23.33
2023-01-17T05:40:27.954Z,23.33
2023-01-17T05:40:59.363Z,23.35
2023-01-17T05:41:30.780Z,23.33
2023-01-17T05:42:02.209Z,23.33
2023-01-17T05:42:33.645Z,23.30
2023-01-17T05:43:05.063Z,23.27
2023-01-17T05:43:36.508Z,23.29
2023-01-17T05:44:07.978Z,23.29
2023-01-17T05:44:39.440Z,23.27
2023-01-17T05:45:10.915Z,23.26
2023-01-17T05:45:42.350Z,23.25
2023-01-17T05:46:13.845Z,23.27
2023-01-17T05:46:45.205Z,23.29
2023-01-17T05:47:16.626Z,23.28
2023-01-17T05:47:48.080Z,23.29
2023-01-17T05:48:19.519Z,23.26
2023-01-17T05:48:50.909Z,23.28
2023-01-17T05:49:22.396Z,23.23
2023-01-17T05:49:53.809Z,23.27
2023-01-17T05:50:25.277Z,23.25
2023-01-17T05:50:56.697Z,23.22
2023-01-17T05:51:28.109Z,23.25
2023-01-17T05:51:59.500Z,23.25
2023-01-17T05:52:30.899Z,23.25
2023-01-17T05:53:02.351Z,23.25
2023-01-17T05:53:33.770Z,23.27
2023-01-17T05:54:05.261Z,23.27
2023-01-17T05:54:36.673Z,23.25
2023-01-17T05:55:08.130Z,23.29
2023-01-17T05:55:39.605Z,23.28
2023-01-17T05:56:11.031Z,23.28
2023-01-17T05:56:42.477Z,23.29
2023-01-17T05:57:13.878Z,23.29
2023-01-17T05:57:45.310Z,23.31
2023-01-17T05:58:16.746Z,23.30
2023-01-17T05:58:48.161Z,23.29
2023-01-17T05:59:32.264Z,23.29
2023-01-17T06:00:07.776Z,23.29
2023-01-17T06:00:39.250Z,23.32
2023-01-17T06:01:10.774Z,23.30
2023-01-17T06:01:42.214Z,23.31
2023-01-17T06:02:13.625Z,23.31
2023-01-17T06:02:45.088Z,23.30
2023-01-17T06:03:16.544Z,23.32
2023-01-17T06:03:47.969Z,23.33
2023-01-17T06:04:19.415Z,23.31
2023-01-17T06:04:50.861Z,23.31
2023-01-17T06:05:22.293Z,23.32
2023-01-17T06:05:53.712Z,23.31
2023-01-17T06:06:25.147Z,23.31
2023-01-17T06:06:56.524Z,23.31
2023-01-17T06:07:28.034Z,23.27
2023-01-17T06:07:59.480Z,23.28
2023-01-17T06:08:30.891Z,23.27
2023-01-17T06:09:02.309Z,23.26
2023-01-17T06:09:33.817Z,23.26
2023-01-17T06:10:05.247Z,23.26
2023-01-17T06:10:36.689Z,23.28
2023-01-17T06:11:08.096Z,23.29
2023-01-17T06:11:39.540Z,23.28
2023-01-17T06:12:10.939Z,23.27
2023-01-17T06:12:42.379Z,23.29
2023-01-17T06:13:13.782Z,23.32
2023-01-17T06:13:45.163Z,23.31
2023-01-17T06:14:16.571Z,23.30
2023-01-17T06:14:48.029Z,23.30
2023-01-17T06:15:19.467Z,23.32
2023-01-17T06:15:50.930Z,23.31
2023-01-17T06:16:22.475Z,23.31
2023-01-17T06:16:53.930Z,23.32
2023-01-17T06:17:25.359Z,23.35
2023-01-17T06:17:56.744Z,23.34
2023-01-17T06:18:28.136Z,23.34
2023-01-17T06:18:59.688Z,23.34
2023-01-17T06:19:31.122Z,23.32
2023-01-17T06:20:02.581Z,23.30
2023-01-17T06:20:34.033Z,23.32
2023-01-17T06:21:05.501Z,23.30
2023-01-17T06:21:36.968Z,23.30
2023-01-17T06:22:08.385Z,23.32
2023-01-17T06:22:39.837Z,23.31
2023-01-17T06:23:11.205Z,23.31
2023-01-17T06:23:42.644Z,23.32
2023-01-17T06:24:14.128Z,23.27
2023-01-17T06:24:45.610Z,23.27
2023-01-17T06:25:17.049Z,23.27
2023-01-17T06:25:48.440Z,23.24
2023-01-17T06:26:19.846Z,23.22
2023-01-17T06:26:51.252Z,23.23
2023-01-17T06:27:22.636Z,23.21
2023-01-17T06:27:54.052Z,23.23
2023-01-17T06:28:25.471Z,23.23
2023-01-17T06:28:56.873Z,23.26
2023-01-17T06:29:28.353Z,23.29
2023-01-17T06:29:59.742Z,23.30
2023-01-17T06:30:31.188Z,23.31
2023-01-17T06:31:02.641Z,23.31
2023-01-17T06:31:34.121Z,23.30
2023-01-17T06:32:05.594Z,23.28
2023-01-17T06:32:36.984Z,23.29
2023-01-17T06:33:08.415Z,23.29
2023-01-17T06:33:39.802Z,23.30
2023-01-17T06:34:11.207Z,23.29
2023-01-17T06:34:42.834Z,23.31
2023-01-17T06:35:14.246Z,23.31
2023-01-17T06:35:45.649Z,23.34
2023-01-17T06:36:17.116Z,23.33
2023-01-17T06:36:48.533Z,23.30
2023-01-17T06:37:19.929Z,23.30
2023-01-17T06:37:51.354Z,23.30
2023-01-17T06:38:22.793Z,23.30
2023-01-17T06:38:54.184Z,23.31
2023-01-17T06:39:25.598Z,23.34
2023-01-17T06:39:57.097Z,23.33
2023-01-17T06:40:28.528Z,23.33
2023-01-17T06:40:59.958Z,23.32
2023-01-17T06:41:31.591Z,23.34
2023-01-17T06:42:03.020Z,23.30
2023-01-17T06:42:34.442Z,23.31
2023-01-17T06:43:05.892Z,23.30
2023-01-17T06:43:37.339Z,23.30
2023-01-17T06:44:08.772Z,23.28
2023-01-17T06:44:40.237Z,23.29
2023-01-17T06:45:11.722Z,23.31